AirNav   Everest Fuels
 
 1304 users online  

8AL2 Charles C Killough Field Airport
Talladega, Alabama, USA


FAA INFORMATION EFFECTIVE 28 FEBRUARY 2019

Location

FAA Identifier: 8AL2
Lat/Long: 33-21-19.5336N / 086-15-43.6860W
33-21.325560N / 086-15.728100W
33.3554260 / -86.2621350
(estimated)
Elevation: 443 ft. / 135 m (estimated)
From city: 9 miles SW of TALLADEGA, AL
Time zone: UTC -6 (UTC -5 during Daylight Saving Time)
Zip code: 35014

Airport Operations

Airport use: Private use. Permission required prior to landing
Activation date: 03/2018
Control tower: no
ARTCC: ATLANTA CENTER
FSS: ANNISTON FLIGHT SERVICE STATION
Attendance: DAYLIGHT HOURS
Wind indicator: yes
Segmented circle: no

Airport Communications

WX AWOS-3PT at SCD (11 nm S): 119.125 (256-249-2620)
WX AWOS-3P at PLR (12 nm N): 119.625 ((205) 884-4359)
WX AWOS-3PT at ASN (17 nm NE): 118.425 (256-362-5847)

Nearby radio navigation aids

VOR radial/distance  VOR name  Freq  Var
TDGr218/17.2TALLADEGA VOR/DME108.8002E
VUZr119/37.1VULCAN VORTAC114.4002E
GADr191/38.3GADSDEN VOR/DME112.3002E

Airport Services

Runway Information

Runway 18/36

Dimensions: 1750 x 100 ft. / 533 x 30 m
Surface: turf, in good condition
RUNWAY 18  RUNWAY 36
Traffic pattern: rightleft
Obstructions: 60 ft. trees, 200 ft. from runwaynone

Airport Ownership and Management from official FAA records

Ownership: Privately-owned
Owner: JOEY PETERS
235 OLD GEORGIA CIRCLE
ALPINE, AL 35014
Phone 256 493 4103
Manager: JOEY PETERS
235 OLD GEORGIA CIRCLE
ALPINE, AL 35014
Phone 256 493 4103

Airport Operational Statistics

Aircraft based on the field: 1
Single engine airplanes: 1
    

Additional Remarks

WILL LDG RWY 18 WITH RIGHT HAND TFC, TKOF FM RWY 36. OPR DURING DALGT AND AVG OF 40 TKOFS AND LDGS MONTHLY.

Instrument Procedures

There are no published instrument procedures at 8AL2.

Some nearby airports with instrument procedures:

KSCD - Merkel Field Sylacauga Municipal Airport (11 nm S)
KPLR - St Clair County Airport (12 nm N)
KASN - Talladega Municipal Airport (17 nm NE)
KANB - Anniston Regional Airport (25 nm NE)
KBHM - Birmingham-Shuttlesworth International Airport (28 nm NW)
 
Loc | Ops | Rwys | IFR | FBO | Links
Com | Nav | Svcs | Stats | Notes
Aerial photo
No photo
 
Airport distance calculator
Flying to Charles C Killough Field Airport? Find the distance to fly.

From to 8AL2

Sunrise and sunset
Times for 22-Mar-2019
 Local
(UTC-5)
 Zulu
(UTC)
Morning civil twilight06:2211:22
Sunrise06:4711:47
Sunset18:5723:57
Evening civil twilight19:2200:22

Current date and time
Zulu (UTC)  22-Mar-2019 14:29:45
Local (UTC-5)  22-Mar-2019 09:29:45
 
METAR
KSCD 
11nm S 
221415Z AUTO 02005KT 10SM OVC110 08/00 A3016 RMK AO2 T00831003
KPLR 
12nm N 
221415Z AUTO 00000KT 10SM CLR 09/01 A3017 RMK A01
KASN 
17nm NE 
221415Z AUTO 31006KT 10SM CLR 08/01 A3016 RMK AO2 T00810006
TAF
KASN 
17nm NE 
221120Z 2212/2312 32003KT P6SM SKC FM221500 30008G15KT P6SM SKC FM230100 00000KT P6SM SKC
NOTAMs
Click for the latest NOTAMs
NOTAMs are issued by the DoD/FAA and will open in a separate window not controlled by AirNav.

 

 
 

Would you like to see your business listed on this page?

 If your business provides an interesting product or service to pilots, flight crews, aircraft, or users of the Charles C Killough Field Airport, you should consider listing it here.  To start the listing process, click on the button below
 
Add a business
 

Other Pages about Charles C Killough Field Airport

Update a link
 
Copyright © AirNav, LLC. All rights reserved. Privacy Policy  Contact